createdAt,value
2018-11-20T00:01:00.706Z,3.98
2018-11-20T00:05:14.127Z,3.96
2018-11-20T00:09:35.995Z,3.93
2018-11-20T00:13:58.370Z,3.98
2018-11-20T00:18:31.098Z,3.96
2018-11-20T00:23:00.509Z,3.92
2018-11-20T00:27:39.328Z,3.88
2018-11-20T00:32:05.283Z,3.83
2018-11-20T00:36:28.665Z,3.82
2018-11-20T00:40:52.017Z,3.82
2018-11-20T00:45:15.892Z,3.78
2018-11-20T00:49:37.909Z,3.75
2018-11-20T00:54:00.192Z,3.73
2018-11-20T00:58:32.391Z,3.71
2018-11-20T01:02:55.459Z,3.69
2018-11-20T01:07:17.418Z,3.69
2018-11-20T01:11:43.925Z,3.69
2018-11-20T01:16:07.376Z,3.69
2018-11-20T01:20:29.475Z,3.72
2018-11-20T01:24:49.822Z,3.73
2018-11-20T01:29:07.126Z,3.73
2018-11-20T01:33:33.259Z,3.74
2018-11-20T01:37:59.130Z,3.76
2018-11-20T01:42:20.847Z,3.81
2018-11-20T01:46:53.170Z,3.84
2018-11-20T01:51:22.254Z,3.83
2018-11-20T01:56:03.639Z,3.81
2018-11-20T02:00:39.034Z,3.77
2018-11-20T02:05:02.298Z,3.74
2018-11-20T02:09:33.196Z,3.71
2018-11-20T02:14:03.301Z,3.70
2018-11-20T02:18:36.182Z,3.68
2018-11-20T02:23:02.056Z,3.67
2018-11-20T02:27:25.038Z,3.66
2018-11-20T02:31:38.075Z,3.69
2018-11-20T02:35:57.505Z,3.67
2018-11-20T02:40:19.870Z,3.69
2018-11-20T02:44:46.134Z,3.70
2018-11-20T02:49:09.467Z,3.69
2018-11-20T02:53:31.344Z,3.71
2018-11-20T02:58:09.988Z,3.72
2018-11-20T03:02:45.395Z,3.69
2018-11-20T03:07:06.950Z,3.69
2018-11-20T03:11:28.641Z,3.68
2018-11-20T03:15:50.900Z,3.66
2018-11-20T03:20:29.293Z,3.64
2018-11-20T03:24:55.802Z,3.63
2018-11-20T03:30:11.992Z,3.64
2018-11-20T03:34:34.153Z,3.65
2018-11-20T03:39:05.190Z,3.65
2018-11-20T03:43:20.324Z,3.67
2018-11-20T03:47:43.808Z,3.69
2018-11-20T03:52:04.193Z,3.73
2018-11-20T03:56:25.553Z,3.79
2018-11-20T04:00:41.961Z,3.79
2018-11-20T04:05:14.823Z,3.82
2018-11-20T04:09:27.281Z,3.83
2018-11-20T04:13:38.935Z,3.81
2018-11-20T04:18:05.395Z,3.81
2018-11-20T04:22:27.608Z,3.80
2018-11-20T04:27:02.944Z,3.78
2018-11-20T04:32:04.956Z,3.79
2018-11-20T04:36:25.013Z,3.79
2018-11-20T04:40:46.792Z,3.74
2018-11-20T04:45:21.895Z,3.74
2018-11-20T04:49:45.854Z,3.76
2018-11-20T04:54:09.812Z,3.79
2018-11-20T04:58:31.866Z,3.81
2018-11-20T05:03:07.584Z,3.79
2018-11-20T05:07:49.431Z,3.80
2018-11-20T05:12:21.627Z,3.85
2018-11-20T05:16:43.616Z,3.83
2018-11-20T05:21:18.989Z,3.84
2018-11-20T05:25:41.395Z,3.84
2018-11-20T05:30:03.145Z,3.85
2018-11-20T05:34:29.396Z,3.89
2018-11-20T05:39:01.849Z,3.90
2018-11-20T05:43:32.941Z,3.90
2018-11-20T05:47:56.326Z,3.94
2018-11-20T05:52:18.173Z,3.97
2018-11-20T05:56:41.509Z,4.01
2018-11-20T06:01:10.694Z,4.09
2018-11-20T06:05:49.664Z,4.07
2018-11-20T06:10:31.040Z,4.04
2018-11-20T06:14:56.178Z,4.04
2018-11-20T06:19:18.303Z,4.05
2018-11-20T06:23:32.390Z,4.09
2018-11-20T06:28:02.041Z,4.09
2018-11-20T06:32:17.484Z,4.07
2018-11-20T06:36:41.577Z,4.08
2018-11-20T06:41:13.930Z,4.13
2018-11-20T06:45:36.080Z,4.11
2018-11-20T06:50:00.867Z,4.12
2018-11-20T06:54:29.910Z,4.07
2018-11-20T06:58:59.335Z,4.07
2018-11-20T07:03:21.873Z,4.09
2018-11-20T07:07:38.737Z,4.12
2018-11-20T07:12:13.616Z,4.14
2018-11-20T07:17:14.949Z,4.21
2018-11-20T07:21:30.114Z,4.27
2018-11-20T07:26:05.741Z,4.29
2018-11-20T07:30:31.709Z,4.29
2018-11-20T07:34:58.009Z,4.30
2018-11-20T07:39:19.928Z,4.34
2018-11-20T07:43:43.450Z,4.36
2018-11-20T07:48:12.985Z,4.38
2018-11-20T07:52:39.084Z,4.41
2018-11-20T07:57:05.068Z,4.43
2018-11-20T08:01:17.915Z,4.48
2018-11-20T08:06:17.359Z,4.49
2018-11-20T08:10:46.471Z,4.53
2018-11-20T08:15:09.842Z,4.56
2018-11-20T08:19:51.128Z,4.56
2018-11-20T08:24:13.222Z,4.60
2018-11-20T08:28:39.671Z,4.63
2018-11-20T08:33:01.509Z,4.63
2018-11-20T08:37:27.904Z,4.62
2018-11-20T08:41:43.125Z,4.60
2018-11-20T08:46:09.279Z,4.57
2018-11-20T08:50:35.258Z,4.50
2018-11-20T08:55:04.525Z,4.46
2018-11-20T08:59:21.067Z,4.40
2018-11-20T09:03:46.921Z,4.43
2018-11-20T09:08:09.274Z,4.44
2018-11-20T09:13:39.616Z,4.56
2018-11-20T09:18:11.141Z,4.48
2018-11-20T09:22:33.688Z,4.45
2018-11-20T09:27:14.876Z,4.46
2018-11-20T09:31:40.657Z,4.43
2018-11-20T09:36:15.309Z,4.39
2018-11-20T09:40:52.929Z,4.32
2018-11-20T09:45:52.989Z,4.28
2018-11-20T09:50:19.718Z,4.27
2018-11-20T09:54:47.950Z,4.20
2018-11-20T09:59:08.863Z,4.19
2018-11-20T10:03:31.456Z,4.24
2018-11-20T10:07:42.989Z,4.19
2018-11-20T10:12:14.425Z,4.17
2018-11-20T10:16:46.133Z,4.10
2018-11-20T10:21:07.453Z,4.08
2018-11-20T10:25:45.190Z,4.09
2018-11-20T10:30:04.791Z,4.09
2018-11-20T10:34:42.504Z,4.09
2018-11-20T10:39:23.230Z,4.08
2018-11-20T10:43:44.902Z,4.02
2018-11-20T10:48:05.868Z,3.93
2018-11-20T10:52:20.422Z,3.88
2018-11-20T10:56:43.060Z,3.89
2018-11-20T11:01:04.022Z,3.91
2018-11-20T11:05:27.054Z,3.92
2018-11-20T11:09:47.999Z,3.90
2018-11-20T11:14:09.315Z,3.92
2018-11-20T11:18:30.553Z,3.89
2018-11-20T11:22:51.942Z,3.83
2018-11-20T11:27:17.830Z,3.69
2018-11-20T11:31:40.487Z,3.64
2018-11-20T11:36:09.186Z,3.56
2018-11-20T11:40:31.785Z,3.52
2018-11-20T11:44:53.069Z,3.41
2018-11-20T11:49:14.581Z,3.41
2018-11-20T11:53:43.031Z,3.45
2018-11-20T11:58:24.156Z,3.45
2018-11-20T12:07:35.442Z,3.39
2018-11-20T12:11:51.046Z,3.42
2018-11-20T12:16:08.818Z,3.45
2018-11-20T12:20:30.422Z,3.39
2018-11-20T12:24:55.675Z,3.36
2018-11-20T12:29:17.102Z,3.37
2018-11-20T12:33:38.367Z,3.31
2018-11-20T12:38:19.605Z,3.23
2018-11-20T12:42:44.381Z,3.16
2018-11-20T12:47:24.570Z,3.20
2018-11-20T12:51:53.636Z,3.13
2018-11-20T12:56:17.810Z,3.08
2018-11-20T13:00:30.540Z,3.08
2018-11-20T13:04:51.400Z,3.07
2018-11-20T13:09:16.489Z,3.06
2018-11-20T13:13:32.518Z,3.07
2018-11-20T13:18:03.592Z,3.12
2018-11-20T13:22:19.793Z,3.15
2018-11-20T13:26:41.064Z,3.19
2018-11-20T13:30:49.285Z,3.19
2018-11-20T13:35:10.251Z,3.22
2018-11-20T13:39:31.432Z,3.20
2018-11-20T13:43:54.092Z,3.24
2018-11-20T13:48:15.628Z,3.30
2018-11-20T13:52:56.125Z,3.32
2018-11-20T13:57:10.726Z,3.36
2018-11-20T14:01:51.656Z,3.38
2018-11-20T14:06:23.831Z,3.38
2018-11-20T14:10:48.626Z,3.38
2018-11-20T14:15:20.276Z,3.42
2018-11-20T14:19:40.113Z,3.50
2018-11-20T14:24:21.174Z,3.50
2018-11-20T14:28:43.812Z,3.43
2018-11-20T14:33:10.156Z,3.48
2018-11-20T14:37:35.451Z,3.46
2018-11-20T14:42:13.091Z,3.41
2018-11-20T14:46:47.869Z,3.41
2018-11-20T14:51:08.627Z,3.41
2018-11-20T14:55:38.670Z,3.39
2018-11-20T15:00:10.027Z,3.41
2018-11-20T15:04:31.958Z,3.36
2018-11-20T15:08:54.578Z,3.29
2018-11-20T15:13:10.603Z,3.30
2018-11-20T15:17:35.791Z,3.29
2018-11-20T15:22:14.128Z,3.31
2018-11-20T15:26:35.422Z,3.33
2018-11-20T15:30:56.818Z,3.26
2018-11-20T15:35:18.030Z,3.26
2018-11-20T15:39:34.312Z,3.26
2018-11-20T15:43:46.834Z,3.27
2018-11-20T15:48:08.588Z,3.31
2018-11-20T15:52:43.118Z,3.34
2018-11-20T15:57:23.966Z,3.32
2018-11-20T16:01:52.820Z,3.30
2018-11-20T16:06:13.989Z,3.31
2018-11-20T16:10:27.612Z,3.31
2018-11-20T16:14:58.980Z,3.31
2018-11-20T16:19:30.490Z,3.34
2018-11-20T16:23:53.216Z,3.36
2018-11-20T16:28:14.441Z,3.34
2018-11-20T16:32:37.066Z,3.33
2018-11-20T16:36:58.139Z,3.35
2018-11-20T16:41:19.361Z,3.36
2018-11-20T16:45:44.780Z,3.39
2018-11-20T16:50:08.042Z,3.40
2018-11-20T16:54:48.769Z,3.47
2018-11-20T16:59:09.686Z,3.51
2018-11-20T17:03:30.798Z,3.54
2018-11-20T17:08:14.275Z,3.58
2018-11-20T17:12:40.095Z,3.61
2018-11-20T17:17:05.366Z,3.67
2018-11-20T17:21:36.657Z,3.68
2018-11-20T17:25:57.673Z,3.73
2018-11-20T17:30:20.301Z,3.74
2018-11-20T17:35:01.080Z,3.79
2018-11-20T17:39:24.352Z,3.82
2018-11-20T17:43:48.796Z,3.83
2018-11-20T17:48:02.451Z,3.87
2018-11-20T17:52:21.812Z,3.91
2018-11-20T17:56:44.461Z,3.94
2018-11-20T18:01:05.866Z,3.97
2018-11-20T18:05:46.737Z,4.00
2018-11-20T18:10:09.052Z,4.03
2018-11-20T18:14:30.845Z,4.05
2018-11-20T18:18:56.300Z,4.11
2018-11-20T18:23:21.439Z,4.13
2018-11-20T18:27:53.266Z,4.15
2018-11-20T18:32:16.015Z,4.20
2018-11-20T18:36:44.007Z,4.23
2018-11-20T18:41:05.453Z,4.26
2018-11-20T18:45:28.343Z,4.30
2018-11-20T18:50:00.272Z,4.36
2018-11-20T18:54:35.109Z,4.40
2018-11-20T18:58:57.825Z,4.42
2018-11-20T19:03:11.533Z,4.44
2018-11-20T19:07:41.730Z,4.44
2018-11-20T19:11:54.904Z,4.40
2018-11-20T19:16:16.062Z,4.39
2018-11-20T19:20:39.146Z,4.38
2018-11-20T19:25:00.586Z,4.40
2018-11-20T19:29:21.710Z,4.40
2018-11-20T19:33:59.556Z,4.37
2018-11-20T19:38:28.896Z,4.40
2018-11-20T19:42:51.313Z,4.41
2018-11-20T19:47:12.284Z,4.41
2018-11-20T19:51:33.463Z,4.45
2018-11-20T19:56:02.136Z,4.47
2018-11-20T20:00:30.703Z,4.47
2018-11-20T20:04:51.945Z,4.45
2018-11-20T20:09:24.962Z,4.48
2018-11-20T20:13:59.640Z,4.50
2018-11-20T20:18:31.808Z,4.48
2018-11-20T20:22:45.194Z,4.47
2018-11-20T20:27:06.392Z,4.48
2018-11-20T20:31:28.023Z,4.49
2018-11-20T20:35:50.814Z,4.48
2018-11-20T20:40:31.367Z,4.53
2018-11-20T20:44:54.064Z,4.56
2018-11-20T20:49:16.442Z,4.61
2018-11-20T20:53:44.906Z,4.61
2018-11-20T20:58:13.432Z,4.60
2018-11-20T21:02:51.478Z,4.58
2018-11-20T21:07:14.192Z,4.61
2018-11-20T21:11:35.270Z,4.61
2018-11-20T21:15:58.482Z,4.60
2018-11-20T21:20:30.006Z,4.61
2018-11-20T21:25:10.972Z,4.62
2018-11-20T21:29:27.933Z,4.64
2018-11-20T21:33:56.528Z,4.63
2018-11-20T21:38:21.710Z,4.65
2018-11-20T21:42:50.215Z,4.65
2018-11-20T21:47:31.035Z,4.70
2018-11-20T21:51:52.507Z,4.71
2018-11-20T21:56:13.626Z,4.73
2018-11-20T22:00:49.325Z,4.78
2018-11-20T22:05:10.958Z,4.80
2018-11-20T22:09:32.146Z,4.85
2018-11-20T22:13:54.808Z,4.87
2018-11-20T22:18:15.836Z,4.91
2018-11-20T22:22:37.243Z,4.93
2018-11-20T22:27:02.741Z,4.94
2018-11-20T22:31:24.247Z,4.99
2018-11-20T22:36:01.937Z,5.02
2018-11-20T22:40:34.085Z,5.05
2018-11-20T22:45:07.675Z,5.05
2018-11-20T22:49:29.202Z,5.07
2018-11-20T22:53:57.581Z,5.09
2018-11-20T22:58:23.545Z,5.12
2018-11-20T23:02:47.751Z,5.11
2018-11-20T23:07:10.021Z,5.15
2018-11-20T23:11:13.678Z,5.16
2018-11-20T23:15:17.464Z,5.19
2018-11-20T23:19:21.109Z,5.22
2018-11-20T23:23:24.758Z,5.27
2018-11-20T23:27:28.366Z,5.32
2018-11-20T23:31:32.451Z,5.36
2018-11-20T23:35:36.119Z,5.38
2018-11-20T23:39:39.756Z,5.34
2018-11-20T23:43:43.377Z,5.35
2018-11-20T23:47:46.990Z,5.31
2018-11-20T23:51:51.230Z,5.32
2018-11-20T23:55:54.839Z,5.32
2018-11-20T23:59:58.503Z,5.31
